sensor_id;sensor_type;location;lat;lon;timestamp;pressure;altitude;pressure_sealevel;temperature;humidity
69622;BME280;56841;55.964;37.674;2022-08-07T00:01:03;99643.75;;;21.15;92.80
69622;BME280;56841;55.964;37.674;2022-08-07T00:03:29;99645.97;;;21.18;93.31
69622;BME280;56841;55.964;37.674;2022-08-07T00:05:55;99636.06;;;21.18;93.71
69622;BME280;56841;55.964;37.674;2022-08-07T00:08:21;99648.41;;;21.19;93.39
69622;BME280;56841;55.964;37.674;2022-08-07T00:10:48;99642.22;;;21.19;92.70
69622;BME280;56841;55.964;37.674;2022-08-07T00:13:14;99646.78;;;21.18;93.07
69622;BME280;56841;55.964;37.674;2022-08-07T00:15:40;99647.03;;;21.17;92.46
69622;BME280;56841;55.964;37.674;2022-08-07T00:18:06;99646.44;;;21.15;92.88
69622;BME280;56841;55.964;37.674;2022-08-07T00:20:36;99653.56;;;21.09;95.16
69622;BME280;56841;55.964;37.674;2022-08-07T00:23:02;99648.56;;;21.01;96.20
69622;BME280;56841;55.964;37.674;2022-08-07T00:25:29;99647.63;;;20.95;95.63
69622;BME280;56841;55.964;37.674;2022-08-07T00:27:54;99649.28;;;20.96;95.02
69622;BME280;56841;55.964;37.674;2022-08-07T00:30:20;99640.41;;;20.96;95.13
69622;BME280;56841;55.964;37.674;2022-08-07T00:32:48;99642.50;;;20.94;94.40
69622;BME280;56841;55.964;37.674;2022-08-07T00:35:14;99639.81;;;20.94;94.28
69622;BME280;56841;55.964;37.674;2022-08-07T00:37:40;99637.13;;;20.94;94.76
69622;BME280;56841;55.964;37.674;2022-08-07T00:40:06;99640.88;;;20.93;94.50
69622;BME280;56841;55.964;37.674;2022-08-07T00:42:33;99640.88;;;20.93;95.18
69622;BME280;56841;55.964;37.674;2022-08-07T00:44:59;99633.28;;;20.90;95.33
69622;BME280;56841;55.964;37.674;2022-08-07T00:47:28;99639.69;;;20.89;95.09
69622;BME280;56841;55.964;37.674;2022-08-07T00:49:54;99640.19;;;20.86;94.66
69622;BME280;56841;55.964;37.674;2022-08-07T00:52:19;99637.72;;;20.84;94.57
69622;BME280;56841;55.964;37.674;2022-08-07T00:54:46;99641.47;;;20.83;95.08
69622;BME280;56841;55.964;37.674;2022-08-07T00:57:12;99640.06;;;20.80;95.40
69622;BME280;56841;55.964;37.674;2022-08-07T00:59:38;99640.31;;;20.79;95.41
69622;BME280;56841;55.964;37.674;2022-08-07T01:02:06;99638.56;;;20.73;96.16
69622;BME280;56841;55.964;37.674;2022-08-07T01:04:32;99638.06;;;20.64;96.61
69622;BME280;56841;55.964;37.674;2022-08-07T01:06:57;99639.00;;;20.58;96.94
69622;BME280;56841;55.964;37.674;2022-08-07T01:09:24;99637.63;;;20.55;96.62
69622;BME280;56841;55.964;37.674;2022-08-07T01:11:50;99630.59;;;20.54;96.72
69622;BME280;56841;55.964;37.674;2022-08-07T01:14:22;99634.94;;;20.55;96.58
69622;BME280;56841;55.964;37.674;2022-08-07T01:16:49;99640.28;;;20.55;96.47
69622;BME280;56841;55.964;37.674;2022-08-07T01:19:19;99637.03;;;20.53;96.89
69622;BME280;56841;55.964;37.674;2022-08-07T01:21:49;99631.91;;;20.52;97.02
69622;BME280;56841;55.964;37.674;2022-08-07T01:24:16;99623.84;;;20.52;96.73
69622;BME280;56841;55.964;37.674;2022-08-07T01:26:43;99631.09;;;20.51;97.33
69622;BME280;56841;55.964;37.674;2022-08-07T01:29:09;99634.19;;;20.48;97.51
69622;BME280;56841;55.964;37.674;2022-08-07T01:31:36;99626.00;;;20.43;98.08
69622;BME280;56841;55.964;37.674;2022-08-07T01:34:03;99640.13;;;20.39;98.10
69622;BME280;56841;55.964;37.674;2022-08-07T01:36:38;99632.66;;;20.29;98.88
69622;BME280;56841;55.964;37.674;2022-08-07T01:39:11;99635.66;;;20.21;99.55
69622;BME280;56841;55.964;37.674;2022-08-07T01:41:40;99633.53;;;20.11;100.00
69622;BME280;56841;55.964;37.674;2022-08-07T01:44:09;99643.66;;;20.09;100.00
69622;BME280;56841;55.964;37.674;2022-08-07T01:46:38;99646.22;;;20.04;100.00
69622;BME280;56841;55.964;37.674;2022-08-07T01:49:04;99635.97;;;20.01;100.00
69622;BME280;56841;55.964;37.674;2022-08-07T01:51:31;99642.59;;;19.98;100.00
69622;BME280;56841;55.964;37.674;2022-08-07T01:54:02;99636.41;;;19.98;100.00
69622;BME280;56841;55.964;37.674;2022-08-07T01:59:07;99636.88;;;19.95;100.00
69622;BME280;56841;55.964;37.674;2022-08-07T02:01:42;99639.56;;;19.95;100.00
69622;BME280;56841;55.964;37.674;2022-08-07T02:04:15;99634.44;;;19.93;100.00
69622;BME280;56841;55.964;37.674;2022-08-07T02:06:46;99641.19;;;19.96;100.00
69622;BME280;56841;55.964;37.674;2022-08-07T02:09:15;99636.88;;;19.95;100.00
69622;BME280;56841;55.964;37.674;2022-08-07T02:11:44;99631.50;;;19.95;100.00
69622;BME280;56841;55.964;37.674;2022-08-07T02:14:11;99632.31;;;19.95;100.00
69622;BME280;56841;55.964;37.674;2022-08-07T02:16:39;99635.25;;;19.94;100.00
69622;BME280;56841;55.964;37.674;2022-08-07T02:19:10;99625.09;;;19.96;100.00
69622;BME280;56841;55.964;37.674;2022-08-07T02:21:38;99625.78;;;19.91;100.00
69622;BME280;56841;55.964;37.674;2022-08-07T02:24:05;99625.91;;;19.96;100.00
69622;BME280;56841;55.964;37.674;2022-08-07T02:26:34;99620.34;;;19.98;100.00
69622;BME280;56841;55.964;37.674;2022-08-07T02:29:05;99616.97;;;20.02;100.00
69622;BME280;56841;55.964;37.674;2022-08-07T02:31:32;99615.09;;;20.03;100.00
69622;BME280;56841;55.964;37.674;2022-08-07T02:34:00;99621.88;;;20.05;100.00
69622;BME280;56841;55.964;37.674;2022-08-07T02:36:29;99613.97;;;20.10;100.00
69622;BME280;56841;55.964;37.674;2022-08-07T02:38:56;99614.91;;;20.16;100.00
69622;BME280;56841;55.964;37.674;2022-08-07T02:41:25;99617.94;;;20.20;100.00
69622;BME280;56841;55.964;37.674;2022-08-07T02:43:52;99621.56;;;20.25;100.00
69622;BME280;56841;55.964;37.674;2022-08-07T02:46:22;99619.84;;;20.31;100.00
69622;BME280;56841;55.964;37.674;2022-08-07T02:48:49;99619.94;;;20.36;99.84
69622;BME280;56841;55.964;37.674;2022-08-07T02:51:18;99619.25;;;20.41;98.78
69622;BME280;56841;55.964;37.674;2022-08-07T02:53:46;99628.03;;;20.48;98.62
69622;BME280;56841;55.964;37.674;2022-08-07T02:56:21;99626.63;;;20.57;99.44
69622;BME280;56841;55.964;37.674;2022-08-07T02:58:50;99625.97;;;20.62;98.81
69622;BME280;56841;55.964;37.674;2022-08-07T03:01:18;99627.94;;;20.66;98.76
69622;BME280;56841;55.964;37.674;2022-08-07T03:03:45;99622.66;;;20.71;97.51
69622;BME280;56841;55.964;37.674;2022-08-07T03:06:15;99633.06;;;20.79;97.57
69622;BME280;56841;55.964;37.674;2022-08-07T03:08:44;99625.94;;;20.85;96.10
69622;BME280;56841;55.964;37.674;2022-08-07T03:11:10;99635.72;;;20.91;96.08
69622;BME280;56841;55.964;37.674;2022-08-07T03:13:40;99633.28;;;21.01;94.92
69622;BME280;56841;55.964;37.674;2022-08-07T03:16:08;99631.63;;;21.12;94.72
69622;BME280;56841;55.964;37.674;2022-08-07T03:18:35;99621.34;;;21.21;94.27
69622;BME280;56841;55.964;37.674;2022-08-07T03:21:04;99622.38;;;21.32;93.60
69622;BME280;56841;55.964;37.674;2022-08-07T03:23:32;99634.06;;;21.37;93.23
69622;BME280;56841;55.964;37.674;2022-08-07T03:26:00;99631.81;;;21.46;92.83
69622;BME280;56841;55.964;37.674;2022-08-07T03:28:33;99627.09;;;21.53;91.95
69622;BME280;56841;55.964;37.674;2022-08-07T03:31:02;99627.78;;;21.60;92.41
69622;BME280;56841;55.964;37.674;2022-08-07T03:33:57;99628.56;;;21.72;91.11
69622;BME280;56841;55.964;37.674;2022-08-07T03:36:25;99629.81;;;21.82;90.10
69622;BME280;56841;55.964;37.674;2022-08-07T03:38:54;99623.22;;;21.89;89.52
69622;BME280;56841;55.964;37.674;2022-08-07T03:41:22;99621.19;;;21.96;88.78
69622;BME280;56841;55.964;37.674;2022-08-07T03:43:49;99625.94;;;22.06;88.96
69622;BME280;56841;55.964;37.674;2022-08-07T03:46:15;99628.22;;;22.14;88.54
69622;BME280;56841;55.964;37.674;2022-08-07T03:48:42;99617.34;;;22.21;87.89
69622;BME280;56841;55.964;37.674;2022-08-07T03:51:08;99628.75;;;22.28;89.27
69622;BME280;56841;55.964;37.674;2022-08-07T03:53:38;99625.69;;;22.36;87.42
69622;BME280;56841;55.964;37.674;2022-08-07T03:56:06;99635.53;;;22.47;86.93
69622;BME280;56841;55.964;37.674;2022-08-07T03:58:36;99622.16;;;22.53;86.86
69622;BME280;56841;55.964;37.674;2022-08-07T04:01:05;99623.63;;;22.60;86.32
69622;BME280;56841;55.964;37.674;2022-08-07T04:03:35;99621.59;;;22.67;86.01
69622;BME280;56841;55.964;37.674;2022-08-07T04:06:01;99631.38;;;22.74;86.16
69622;BME280;56841;55.964;37.674;2022-08-07T04:08:27;99629.06;;;22.82;85.39
69622;BME280;56841;55.964;37.674;2022-08-07T04:10:55;99634.75;;;22.86;84.24
69622;BME280;56841;55.964;37.674;2022-08-07T04:13:22;99634.84;;;22.91;83.85
69622;BME280;56841;55.964;37.674;2022-08-07T04:15:50;99642.78;;;22.98;84.03
69622;BME280;56841;55.964;37.674;2022-08-07T04:18:17;99640.72;;;23.05;83.06
69622;BME280;56841;55.964;37.674;2022-08-07T04:20:45;99642.91;;;23.08;82.53
69622;BME280;56841;55.964;37.674;2022-08-07T04:23:12;99643.22;;;23.11;82.89
69622;BME280;56841;55.964;37.674;2022-08-07T04:25:40;99638.16;;;23.15;82.47
69622;BME280;56841;55.964;37.674;2022-08-07T04:28:08;99635.03;;;23.23;82.30
69622;BME280;56841;55.964;37.674;2022-08-07T04:30:37;99637.03;;;23.33;81.57
69622;BME280;56841;55.964;37.674;2022-08-07T04:33:15;99633.34;;;23.39;80.89
69622;BME280;56841;55.964;37.674;2022-08-07T04:35:46;99636.66;;;23.46;80.09
69622;BME280;56841;55.964;37.674;2022-08-07T04:38:15;99638.88;;;23.54;80.04
69622;BME280;56841;55.964;37.674;2022-08-07T04:40:44;99643.50;;;23.59;79.48
69622;BME280;56841;55.964;37.674;2022-08-07T04:43:16;99635.78;;;23.62;79.61
69622;BME280;56841;55.964;37.674;2022-08-07T04:46:07;99637.03;;;23.77;78.36
69622;BME280;56841;55.964;37.674;2022-08-07T04:51:29;99629.78;;;24.09;77.01
69622;BME280;56841;55.964;37.674;2022-08-07T04:54:19;99631.22;;;24.17;76.41
69622;BME280;56841;55.964;37.674;2022-08-07T05:02:23;99633.13;;;24.54;72.87
69622;BME280;56841;55.964;37.674;2022-08-07T05:05:26;99638.88;;;24.63;72.99
69622;BME280;56841;55.964;37.674;2022-08-07T05:08:00;99634.63;;;24.72;72.45
69622;BME280;56841;55.964;37.674;2022-08-07T05:10:39;99633.63;;;24.83;71.45
69622;BME280;56841;55.964;37.674;2022-08-07T05:13:10;99632.06;;;24.97;70.77
69622;BME280;56841;55.964;37.674;2022-08-07T05:15:42;99621.03;;;25.09;70.79
69622;BME280;56841;55.964;37.674;2022-08-07T05:18:15;99621.66;;;25.16;69.51
69622;BME280;56841;55.964;37.674;2022-08-07T05:20:48;99625.19;;;25.22;69.29
69622;BME280;56841;55.964;37.674;2022-08-07T05:23:30;99628.97;;;25.26;68.94
69622;BME280;56841;55.964;37.674;2022-08-07T05:26:02;99629.25;;;25.24;69.26
69622;BME280;56841;55.964;37.674;2022-08-07T05:28:31;99636.88;;;25.38;68.25
69622;BME280;56841;55.964;37.674;2022-08-07T05:30:58;99634.19;;;25.43;67.43
69622;BME280;56841;55.964;37.674;2022-08-07T05:33:27;99625.88;;;25.65;67.24
69622;BME280;56841;55.964;37.674;2022-08-07T05:35:54;99642.13;;;25.75;66.82
69622;BME280;56841;55.964;37.674;2022-08-07T05:38:21;99638.94;;;25.93;66.29
69622;BME280;56841;55.964;37.674;2022-08-07T05:40:48;99637.59;;;26.01;64.27
69622;BME280;56841;55.964;37.674;2022-08-07T05:43:15;99645.72;;;26.11;63.21
69622;BME280;56841;55.964;37.674;2022-08-07T05:45:42;99652.78;;;26.22;63.54
69622;BME280;56841;55.964;37.674;2022-08-07T05:48:09;99644.13;;;26.41;62.74
69622;BME280;56841;55.964;37.674;2022-08-07T05:50:42;99635.75;;;26.48;61.62
69622;BME280;56841;55.964;37.674;2022-08-07T05:53:08;99630.91;;;26.50;59.23
69622;BME280;56841;55.964;37.674;2022-08-07T05:55:36;99633.88;;;26.48;58.49
69622;BME280;56841;55.964;37.674;2022-08-07T05:58:04;99640.06;;;26.38;58.68
69622;BME280;56841;55.964;37.674;2022-08-07T06:00:32;99639.81;;;26.30;58.69
69622;BME280;56841;55.964;37.674;2022-08-07T06:03:04;99640.88;;;26.29;58.61
69622;BME280;56841;55.964;37.674;2022-08-07T06:05:31;99647.63;;;26.31;58.81
69622;BME280;56841;55.964;37.674;2022-08-07T06:08:03;99641.97;;;26.33;58.84
69622;BME280;56841;55.964;37.674;2022-08-07T06:10:31;99638.44;;;26.42;58.82
69622;BME280;56841;55.964;37.674;2022-08-07T06:12:59;99640.09;;;26.54;58.04
69622;BME280;56841;55.964;37.674;2022-08-07T06:15:28;99636.84;;;26.52;58.39
69622;BME280;56841;55.964;37.674;2022-08-07T06:17:54;99652.81;;;26.53;58.91
69622;BME280;56841;55.964;37.674;2022-08-07T06:20:23;99646.56;;;26.53;58.98
69622;BME280;56841;55.964;37.674;2022-08-07T06:22:49;99644.41;;;26.55;57.92
69622;BME280;56841;55.964;37.674;2022-08-07T06:25:26;99648.97;;;26.80;57.63
69622;BME280;56841;55.964;37.674;2022-08-07T06:28:02;99654.34;;;27.00;57.00
69622;BME280;56841;55.964;37.674;2022-08-07T06:30:29;99645.69;;;27.13;56.55
69622;BME280;56841;55.964;37.674;2022-08-07T06:32:55;99660.59;;;27.06;55.56
69622;BME280;56841;55.964;37.674;2022-08-07T06:35:22;99648.38;;;27.08;55.88
69622;BME280;56841;55.964;37.674;2022-08-07T06:37:47;99653.81;;;27.19;55.73
69622;BME280;56841;55.964;37.674;2022-08-07T06:40:14;99648.31;;;27.34;55.21
69622;BME280;56841;55.964;37.674;2022-08-07T06:42:41;99651.88;;;27.29;54.75
69622;BME280;56841;55.964;37.674;2022-08-07T06:45:14;99651.34;;;27.17;55.62
69622;BME280;56841;55.964;37.674;2022-08-07T06:47:44;99655.41;;;27.14;55.48
69622;BME280;56841;55.964;37.674;2022-08-07T06:50:12;99653.50;;;27.25;54.67
69622;BME280;56841;55.964;37.674;2022-08-07T06:52:41;99654.78;;;27.38;54.54
69622;BME280;56841;55.964;37.674;2022-08-07T06:55:19;99649.56;;;27.57;54.19
69622;BME280;56841;55.964;37.674;2022-08-07T06:57:47;99644.94;;;27.62;53.39
69622;BME280;56841;55.964;37.674;2022-08-07T07:00:18;99650.00;;;27.84;52.96
69622;BME280;56841;55.964;37.674;2022-08-07T07:02:46;99639.63;;;27.92;51.98
69622;BME280;56841;55.964;37.674;2022-08-07T07:05:12;99638.69;;;28.11;51.79
69622;BME280;56841;55.964;37.674;2022-08-07T07:07:39;99640.09;;;28.38;51.54
69622;BME280;56841;55.964;37.674;2022-08-07T07:10:05;99637.22;;;28.58;50.33
69622;BME280;56841;55.964;37.674;2022-08-07T07:15:16;99632.91;;;28.81;47.79
69622;BME280;56841;55.964;37.674;2022-08-07T07:17:44;99632.84;;;28.63;48.05
69622;BME280;56841;55.964;37.674;2022-08-07T07:20:17;99633.97;;;28.56;47.79
69622;BME280;56841;55.964;37.674;2022-08-07T07:22:44;99635.69;;;28.47;48.13
69622;BME280;56841;55.964;37.674;2022-08-07T07:25:13;99636.31;;;28.39;48.57
69622;BME280;56841;55.964;37.674;2022-08-07T07:27:46;99639.81;;;28.45;48.27
69622;BME280;56841;55.964;37.674;2022-08-07T07:30:14;99646.69;;;28.61;48.21
69622;BME280;56841;55.964;37.674;2022-08-07T07:32:44;99641.16;;;28.71;48.00
69622;BME280;56841;55.964;37.674;2022-08-07T07:35:14;99642.03;;;28.67;48.60
69622;BME280;56841;55.964;37.674;2022-08-07T07:37:41;99647.53;;;28.62;49.02
69622;BME280;56841;55.964;37.674;2022-08-07T07:40:14;99652.56;;;28.44;49.72
69622;BME280;56841;55.964;37.674;2022-08-07T07:42:42;99660.75;;;28.34;49.97
69622;BME280;56841;55.964;37.674;2022-08-07T07:45:09;99672.72;;;28.33;50.32
69622;BME280;56841;55.964;37.674;2022-08-07T07:47:40;99683.56;;;28.38;50.15
69622;BME280;56841;55.964;37.674;2022-08-07T07:50:10;99682.72;;;28.38;50.67
69622;BME280;56841;55.964;37.674;2022-08-07T07:52:38;99684.38;;;28.39;51.91
69622;BME280;56841;55.964;37.674;2022-08-07T07:55:06;99681.09;;;28.42;52.09
69622;BME280;56841;55.964;37.674;2022-08-07T07:57:34;99680.91;;;28.28;52.67
69622;BME280;56841;55.964;37.674;2022-08-07T08:00:02;99681.00;;;28.18;53.72
69622;BME280;56841;55.964;37.674;2022-08-07T08:02:39;99667.00;;;27.95;54.74
69622;BME280;56841;55.964;37.674;2022-08-07T08:05:09;99657.03;;;27.85;54.43
69622;BME280;56841;55.964;37.674;2022-08-07T08:07:38;99651.13;;;27.73;56.71
69622;BME280;56841;55.964;37.674;2022-08-07T08:10:06;99639.72;;;27.71;55.87
69622;BME280;56841;55.964;37.674;2022-08-07T08:12:33;99639.75;;;27.76;56.43
69622;BME280;56841;55.964;37.674;2022-08-07T08:15:00;99644.84;;;27.83;54.13
69622;BME280;56841;55.964;37.674;2022-08-07T08:17:28;99643.19;;;27.87;53.12
69622;BME280;56841;55.964;37.674;2022-08-07T08:20:14;99650.00;;;27.84;52.97
69622;BME280;56841;55.964;37.674;2022-08-07T08:22:42;99653.56;;;27.80;53.11
69622;BME280;56841;55.964;37.674;2022-08-07T08:25:30;99656.97;;;27.96;53.40
69622;BME280;56841;55.964;37.674;2022-08-07T08:28:21;99645.41;;;28.19;53.11
69622;BME280;56841;55.964;37.674;2022-08-07T08:30:57;99641.00;;;28.28;51.47
69622;BME280;56841;55.964;37.674;2022-08-07T08:33:26;99631.66;;;28.45;51.24
69622;BME280;56841;55.964;37.674;2022-08-07T08:35:54;99632.75;;;28.73;50.67
69622;BME280;56841;55.964;37.674;2022-08-07T08:38:42;99634.28;;;28.55;51.25
69622;BME280;56841;55.964;37.674;2022-08-07T08:44:12;99633.97;;;28.22;52.17
69622;BME280;56841;55.964;37.674;2022-08-07T08:47:05;99635.03;;;28.26;53.43
69622;BME280;56841;55.964;37.674;2022-08-07T08:49:45;99633.69;;;28.58;52.26
69622;BME280;56841;55.964;37.674;2022-08-07T08:52:37;99636.72;;;28.80;50.94
69622;BME280;56841;55.964;37.674;2022-08-07T08:55:20;99639.56;;;28.94;51.67
69622;BME280;56841;55.964;37.674;2022-08-07T09:03:57;99640.66;;;29.65;54.06
69622;BME280;56841;55.964;37.674;2022-08-07T09:09:24;99636.25;;;29.69;53.72
69622;BME280;56841;55.964;37.674;2022-08-07T09:12:00;99640.38;;;29.43;52.83
69622;BME280;56841;55.964;37.674;2022-08-07T09:14:38;99647.16;;;29.45;51.98
69622;BME280;56841;55.964;37.674;2022-08-07T09:19:59;99634.16;;;29.18;55.20
69622;BME280;56841;55.964;37.674;2022-08-07T09:25:13;99618.41;;;28.91;55.66
69622;BME280;56841;55.964;37.674;2022-08-07T09:30:50;99609.38;;;29.01;53.19
69622;BME280;56841;55.964;37.674;2022-08-07T09:36:15;99604.78;;;28.96;53.25
69622;BME280;56841;55.964;37.674;2022-08-07T09:38:46;99599.03;;;29.03;53.85
69622;BME280;56841;55.964;37.674;2022-08-07T09:52:22;99570.53;;;29.19;52.34
69622;BME280;56841;55.964;37.674;2022-08-07T09:55:20;99572.53;;;29.14;52.11
69622;BME280;56841;55.964;37.674;2022-08-07T09:58:13;99580.22;;;29.07;51.86
69622;BME280;56841;55.964;37.674;2022-08-07T10:09:22;99563.31;;;28.86;53.95
69622;BME280;56841;55.964;37.674;2022-08-07T10:12:13;99556.44;;;29.17;52.46
69622;BME280;56841;55.964;37.674;2022-08-07T10:14:51;99561.19;;;29.25;52.95
69622;BME280;56841;55.964;37.674;2022-08-07T10:20:24;99569.75;;;29.38;50.04
69622;BME280;56841;55.964;37.674;2022-08-07T10:22:58;99575.31;;;29.46;49.10
69622;BME280;56841;55.964;37.674;2022-08-07T10:38:58;99572.50;;;29.75;48.91
69622;BME280;56841;55.964;37.674;2022-08-07T10:41:32;99578.81;;;29.90;48.62
69622;BME280;56841;55.964;37.674;2022-08-07T10:44:11;99583.25;;;30.18;48.85
69622;BME280;56841;55.964;37.674;2022-08-07T10:46:49;99574.00;;;30.19;49.10
69622;BME280;56841;55.964;37.674;2022-08-07T10:49:29;99592.19;;;30.05;49.07
69622;BME280;56841;55.964;37.674;2022-08-07T10:52:06;99619.19;;;29.21;49.20
69622;BME280;56841;55.964;37.674;2022-08-07T10:54:55;99628.31;;;27.74;52.78
69622;BME280;56841;55.964;37.674;2022-08-07T10:58:41;99598.00;;;27.62;54.32
69622;BME280;56841;55.964;37.674;2022-08-07T11:00:44;99587.31;;;27.36;53.76
69622;BME280;56841;55.964;37.674;2022-08-07T11:03:22;99579.50;;;27.25;54.76
69622;BME280;56841;55.964;37.674;2022-08-07T11:05:56;99596.59;;;27.20;55.17
69622;BME280;56841;55.964;37.674;2022-08-07T11:08:38;99597.41;;;27.10;56.22
69622;BME280;56841;55.964;37.674;2022-08-07T11:11:39;99592.88;;;26.90;55.21
69622;BME280;56841;55.964;37.674;2022-08-07T11:14:07;99586.94;;;26.83;56.00
69622;BME280;56841;55.964;37.674;2022-08-07T11:16:41;99587.78;;;26.84;56.04
69622;BME280;56841;55.964;37.674;2022-08-07T11:19:19;99587.22;;;26.82;55.87
69622;BME280;56841;55.964;37.674;2022-08-07T11:22:08;99597.00;;;26.78;56.62
69622;BME280;56841;55.964;37.674;2022-08-07T11:24:50;99602.38;;;26.83;56.40
69622;BME280;56841;55.964;37.674;2022-08-07T11:27:26;99597.50;;;26.80;56.78
69622;BME280;56841;55.964;37.674;2022-08-07T11:30:03;99617.59;;;26.68;57.28
69622;BME280;56841;55.964;37.674;2022-08-07T11:35:42;99611.09;;;26.34;59.63
69622;BME280;56841;55.964;37.674;2022-08-07T11:38:17;99614.63;;;26.04;60.26
69622;BME280;56841;55.964;37.674;2022-08-07T11:41:10;99636.19;;;25.78;61.51
69622;BME280;56841;55.964;37.674;2022-08-07T11:44:02;99654.53;;;25.66;62.32
69622;BME280;56841;55.964;37.674;2022-08-07T11:46:42;99660.97;;;25.44;64.03
69622;BME280;56841;55.964;37.674;2022-08-07T12:00:09;99653.88;;;23.23;88.22
69622;BME280;56841;55.964;37.674;2022-08-07T12:05:27;99707.94;;;23.00;91.48
69622;BME280;56841;55.964;37.674;2022-08-07T12:10:47;99690.31;;;22.75;90.93
69622;BME280;56841;55.964;37.674;2022-08-07T12:15:54;99681.19;;;22.93;84.69
69622;BME280;56841;55.964;37.674;2022-08-07T12:24:16;99693.03;;;23.31;83.65
69622;BME280;56841;55.964;37.674;2022-08-07T12:26:55;99697.09;;;23.33;83.38
69622;BME280;56841;55.964;37.674;2022-08-07T12:29:37;99694.09;;;23.52;82.87
69622;BME280;56841;55.964;37.674;2022-08-07T12:34:39;99687.84;;;23.90;81.42
69622;BME280;56841;55.964;37.674;2022-08-07T12:37:07;99689.38;;;23.81;79.87
69622;BME280;56841;55.964;37.674;2022-08-07T12:39:35;99679.34;;;23.76;79.62
69622;BME280;56841;55.964;37.674;2022-08-07T12:42:01;99682.91;;;23.82;80.08
69622;BME280;56841;55.964;37.674;2022-08-07T12:44:30;99683.34;;;23.74;79.74
69622;BME280;56841;55.964;37.674;2022-08-07T12:49:54;99693.19;;;23.63;80.98
69622;BME280;56841;55.964;37.674;2022-08-07T12:52:47;99713.22;;;23.50;81.78
69622;BME280;56841;55.964;37.674;2022-08-07T12:55:30;99709.78;;;23.55;82.07
69622;BME280;56841;55.964;37.674;2022-08-07T12:58:01;99706.50;;;23.70;81.20
69622;BME280;56841;55.964;37.674;2022-08-07T13:09:00;99732.22;;;24.04;78.79
69622;BME280;56841;55.964;37.674;2022-08-07T13:11:46;99725.88;;;24.16;77.89
69622;BME280;56841;55.964;37.674;2022-08-07T13:17:23;99708.50;;;24.33;76.89
69622;BME280;56841;55.964;37.674;2022-08-07T13:20:02;99701.41;;;24.49;75.32
69622;BME280;56841;55.964;37.674;2022-08-07T13:22:44;99716.66;;;24.66;74.08
69622;BME280;56841;55.964;37.674;2022-08-07T13:25:17;99713.03;;;25.29;71.59
69622;BME280;56841;55.964;37.674;2022-08-07T13:28:01;99723.66;;;25.99;67.28
69622;BME280;56841;55.964;37.674;2022-08-07T13:30:29;99732.13;;;26.43;63.93
69622;BME280;56841;55.964;37.674;2022-08-07T13:33:25;99731.88;;;26.86;61.91
69622;BME280;56841;55.964;37.674;2022-08-07T13:35:58;99738.59;;;27.39;60.13
69622;BME280;56841;55.964;37.674;2022-08-07T13:41:49;99736.34;;;29.24;53.44
69622;BME280;56841;55.964;37.674;2022-08-07T13:44:21;99730.84;;;30.15;50.58
69622;BME280;56841;55.964;37.674;2022-08-07T13:46:48;99722.34;;;29.60;51.26
69622;BME280;56841;55.964;37.674;2022-08-07T13:49:19;99727.78;;;28.78;52.65
69622;BME280;56841;55.964;37.674;2022-08-07T13:51:46;99728.53;;;29.18;52.43
69622;BME280;56841;55.964;37.674;2022-08-07T13:54:13;99722.34;;;29.60;51.55
69622;BME280;56841;55.964;37.674;2022-08-07T13:56:42;99721.31;;;30.88;47.69
69622;BME280;56841;55.964;37.674;2022-08-07T13:59:16;99722.97;;;31.72;46.13
69622;BME280;56841;55.964;37.674;2022-08-07T14:01:52;99718.25;;;32.50;43.65
69622;BME280;56841;55.964;37.674;2022-08-07T14:04:23;99722.84;;;32.64;42.63
69622;BME280;56841;55.964;37.674;2022-08-07T14:06:51;99714.78;;;32.90;42.88
69622;BME280;56841;55.964;37.674;2022-08-07T14:09:23;99709.00;;;32.91;41.98
69622;BME280;56841;55.964;37.674;2022-08-07T14:12:00;99707.75;;;32.44;42.93
69622;BME280;56841;55.964;37.674;2022-08-07T14:14:32;99714.28;;;32.56;42.82
69622;BME280;56841;55.964;37.674;2022-08-07T14:17:04;99718.78;;;32.02;43.84
69622;BME280;56841;55.964;37.674;2022-08-07T14:19:48;99713.09;;;31.49;44.75
69622;BME280;56841;55.964;37.674;2022-08-07T14:22:19;99702.63;;;30.63;46.46
69622;BME280;56841;55.964;37.674;2022-08-07T14:24:49;99695.31;;;29.69;48.13
69622;BME280;56841;55.964;37.674;2022-08-07T14:27:46;99694.78;;;29.19;49.91
69622;BME280;56841;55.964;37.674;2022-08-07T14:30:12;99700.41;;;28.98;50.56
69622;BME280;56841;55.964;37.674;2022-08-07T14:32:53;99684.53;;;28.81;50.30
69622;BME280;56841;55.964;37.674;2022-08-07T14:35:21;99693.53;;;28.48;51.86
69622;BME280;56841;55.964;37.674;2022-08-07T14:37:49;99686.59;;;28.66;50.17
69622;BME280;56841;55.964;37.674;2022-08-07T14:40:21;99677.06;;;28.97;49.95
69622;BME280;56841;55.964;37.674;2022-08-07T14:42:56;99679.25;;;28.95;49.43
69622;BME280;56841;55.964;37.674;2022-08-07T14:45:26;99674.78;;;28.51;48.30
69622;BME280;56841;55.964;37.674;2022-08-07T14:47:54;99672.34;;;28.50;48.99
69622;BME280;56841;55.964;37.674;2022-08-07T14:50:22;99671.59;;;28.00;49.52
69622;BME280;56841;55.964;37.674;2022-08-07T14:52:51;99671.28;;;27.57;50.33
69622;BME280;56841;55.964;37.674;2022-08-07T14:55:19;99671.81;;;27.49;50.74
69622;BME280;56841;55.964;37.674;2022-08-07T14:57:48;99671.28;;;27.52;51.79
69622;BME280;56841;55.964;37.674;2022-08-07T15:00:16;99671.31;;;27.41;52.72
69622;BME280;56841;55.964;37.674;2022-08-07T15:02:45;99671.59;;;27.40;52.27
69622;BME280;56841;55.964;37.674;2022-08-07T15:05:16;99674.56;;;27.44;52.87
69622;BME280;56841;55.964;37.674;2022-08-07T15:07:43;99683.63;;;27.19;52.64
69622;BME280;56841;55.964;37.674;2022-08-07T15:10:16;99678.16;;;27.24;53.56
69622;BME280;56841;55.964;37.674;2022-08-07T15:12:43;99680.66;;;27.15;55.09
69622;BME280;56841;55.964;37.674;2022-08-07T15:15:12;99693.41;;;26.79;56.06